createdAt,value
2017-11-16T16:18:51.749Z,99555.61
2017-11-16T16:21:21.335Z,99548.28
2017-11-16T16:23:52.716Z,99554.58
2017-11-16T16:26:22.280Z,99550.12
2017-11-16T16:28:51.915Z,99557.72
2017-11-16T16:32:46.504Z,99552.47
2017-11-16T16:35:17.406Z,99556.23
2017-11-16T16:37:47.602Z,99543.84
2017-11-16T16:40:17.958Z,99549.06
2017-11-16T16:42:48.246Z,99552.56
2017-11-16T16:45:19.203Z,99543.39
2017-11-16T16:47:48.867Z,99548.26
2017-11-16T16:50:18.522Z,99546.32
2017-11-16T16:52:48.505Z,99548.01
2017-11-16T16:55:18.513Z,99539.15
2017-11-16T16:57:48.480Z,99547.81
2017-11-16T17:00:18.160Z,99547.39
2017-11-16T17:02:47.700Z,99548.99
2017-11-16T17:05:17.765Z,99550.10
2017-11-16T17:07:47.399Z,99551.84
2017-11-16T17:10:17.097Z,99551.34
2017-11-16T17:12:46.613Z,99543.29
2017-11-16T17:15:16.304Z,99540.12
2017-11-16T17:17:45.733Z,99544.41
2017-11-16T17:20:15.381Z,99537.54
2017-11-16T17:22:45.395Z,99546.20
2017-11-16T17:25:14.989Z,99543.84
2017-11-16T17:27:45.114Z,99542.62
2017-11-16T17:30:14.990Z,99551.05
2017-11-16T17:32:45.302Z,99541.11
2017-11-16T17:35:15.654Z,99542.69
2017-11-16T17:37:46.674Z,99542.75
2017-11-16T17:40:17.128Z,99550.30
2017-11-16T17:42:48.284Z,99551.63
2017-11-16T17:45:18.863Z,99556.09
2017-11-16T17:47:49.804Z,99552.97
2017-11-16T17:50:20.147Z,99560.12
2017-11-16T17:52:51.003Z,99560.59
2017-11-16T17:55:21.153Z,99560.41
2017-11-16T17:57:50.761Z,99566.09
2017-11-16T18:00:21.406Z,99567.55
2017-11-16T18:02:51.329Z,99562.73
2017-11-16T18:05:23.352Z,99566.83
2017-11-16T18:07:55.158Z,99557.08
2017-11-16T18:10:24.857Z,99559.31
2017-11-16T18:12:54.970Z,99555.50
2017-11-16T18:15:25.220Z,99562.16
2017-11-16T18:17:56.709Z,99565.22
2017-11-16T18:20:26.685Z,99566.56
2017-11-16T18:22:56.986Z,99567.12
2017-11-16T18:25:26.627Z,99566.98
2017-11-16T18:27:56.316Z,99569.42
2017-11-16T18:30:26.341Z,99572.70
2017-11-16T18:32:56.175Z,99578.02
2017-11-16T18:35:26.052Z,99567.67
2017-11-16T18:37:55.646Z,99563.07
2017-11-16T18:40:25.778Z,99560.50
2017-11-16T18:42:55.361Z,99561.69
2017-11-16T18:45:25.013Z,99568.77
2017-11-16T18:47:54.777Z,99564.16
2017-11-16T18:50:25.143Z,99565.35
2017-11-16T18:52:55.648Z,99568.91
2017-11-16T18:55:25.356Z,99570.66
2017-11-16T18:57:55.545Z,99564.10
2017-11-16T19:00:25.059Z,99567.34
2017-11-16T19:02:54.933Z,99572.91
2017-11-16T19:05:25.412Z,99577.43
2017-11-16T19:07:55.287Z,99573.07
2017-11-16T19:10:25.399Z,99572.57
2017-11-16T19:12:55.893Z,99574.77
2017-11-16T19:15:25.684Z,99572.75
2017-11-16T19:17:56.484Z,99572.28
2017-11-16T19:20:27.075Z,99574.27
2017-11-16T19:22:56.882Z,99573.71
2017-11-16T19:25:26.908Z,99566.92
2017-11-16T19:27:56.868Z,99565.54
2017-11-16T19:30:27.308Z,99560.44
2017-11-16T19:32:57.879Z,99571.97
2017-11-16T19:35:28.695Z,99573.27
2017-11-16T19:37:58.656Z,99573.51
2017-11-16T19:40:28.529Z,99579.07
2017-11-16T19:42:59.285Z,99580.30
2017-11-16T19:45:29.504Z,99585.80
2017-11-16T19:47:59.432Z,99582.81
2017-11-16T19:50:30.185Z,99579.97
2017-11-16T19:53:00.347Z,99574.74
2017-11-16T19:55:31.588Z,99574.60
2017-11-16T19:58:02.968Z,99571.21
2017-11-16T20:00:33.235Z,99584.73
2017-11-16T20:03:03.711Z,99582.92
2017-11-16T20:05:33.552Z,99585.15
2017-11-16T20:08:03.301Z,99588.55
2017-11-16T20:10:32.993Z,99578.56
2017-11-16T20:13:02.721Z,99582.17
2017-11-16T20:15:33.032Z,99587.79
2017-11-16T20:18:04.418Z,99588.59
2017-11-16T20:20:34.550Z,99591.66
2017-11-16T20:23:05.459Z,99589.91
2017-11-16T20:25:35.281Z,99590.97
2017-11-16T20:28:05.527Z,99585.48
2017-11-16T20:30:36.580Z,99585.91
2017-11-16T20:33:08.215Z,99595.86
2017-11-16T20:35:39.398Z,99597.64
2017-11-16T20:38:09.353Z,99594.67
2017-11-16T20:40:39.525Z,99604.92
2017-11-16T20:43:09.508Z,99607.68
2017-11-16T20:45:39.460Z,99600.66
2017-11-16T20:48:09.317Z,99604.75
2017-11-16T20:50:40.222Z,99599.56
2017-11-16T20:53:12.350Z,99605.05
2017-11-16T20:55:43.812Z,99603.94
2017-11-16T20:58:13.475Z,99606.41
2017-11-16T21:00:43.448Z,99615.38
2017-11-16T21:03:13.044Z,99609.55
2017-11-16T21:05:43.009Z,99610.53
2017-11-16T21:08:12.918Z,99612.78
2017-11-16T21:10:42.377Z,99611.59
2017-11-16T21:13:12.622Z,99602.80
2017-11-16T21:15:43.598Z,99589.02
2017-11-16T21:18:14.162Z,99584.56
2017-11-16T21:20:52.343Z,99577.50
2017-11-16T21:23:22.897Z,99586.59
2017-11-16T21:25:52.961Z,99585.75
2017-11-16T21:28:22.770Z,99585.36
2017-11-16T21:30:52.480Z,99591.83
2017-11-16T21:33:22.771Z,99589.45
2017-11-16T21:35:52.774Z,99588.59
2017-11-16T21:38:22.401Z,99593.61
2017-11-16T21:40:52.302Z,99595.52
2017-11-16T21:43:22.621Z,99583.91
2017-11-16T21:45:53.647Z,99589.18
2017-11-16T21:48:24.306Z,99588.25
2017-11-16T21:50:54.797Z,99585.31
2017-11-16T21:53:26.449Z,99583.77
2017-11-16T21:55:56.285Z,99588.19
2017-11-16T21:58:26.023Z,99595.55
2017-11-16T22:00:56.457Z,99595.38
2017-11-16T22:03:26.577Z,99596.58
2017-11-16T22:05:57.816Z,99599.89
2017-11-16T22:08:28.915Z,99600.78
2017-11-16T22:10:59.903Z,99600.86
2017-11-16T22:13:35.531Z,99588.74
2017-11-16T22:16:06.837Z,99593.17
2017-11-16T22:18:37.809Z,99588.69
2017-11-16T22:21:07.552Z,99592.45
2017-11-16T22:23:37.321Z,99592.84
2017-11-16T22:26:07.401Z,99590.20
2017-11-16T22:28:36.902Z,99579.70
2017-11-16T22:31:06.928Z,99583.14
2017-11-16T22:33:37.330Z,99594.92
2017-11-16T22:36:06.932Z,99594.80
2017-11-16T22:38:36.736Z,99589.06
2017-11-16T22:41:08.068Z,99589.06
2017-11-16T22:43:37.898Z,99591.78
2017-11-16T22:46:08.335Z,99588.59
2017-11-16T22:48:38.425Z,99595.48
2017-11-16T22:51:09.176Z,99594.20
2017-11-16T22:53:39.339Z,99593.98
2017-11-16T22:56:09.746Z,99597.48
2017-11-16T22:58:39.689Z,99598.29
2017-11-16T23:01:10.052Z,99594.55
2017-11-16T23:03:40.717Z,99594.03
2017-11-16T23:06:12.992Z,99585.19
2017-11-16T23:08:44.368Z,99584.20
2017-11-16T23:11:13.901Z,99589.45
2017-11-16T23:13:43.916Z,99588.77
2017-11-16T23:16:15.375Z,99592.80
2017-11-16T23:18:45.007Z,99589.05
2017-11-16T23:21:14.710Z,99591.05
2017-11-16T23:23:45.181Z,99593.30
2017-11-16T23:26:14.880Z,99585.48
2017-11-16T23:28:44.521Z,99582.67
2017-11-16T23:31:14.504Z,99575.88
2017-11-16T23:33:44.240Z,99572.25
2017-11-16T23:36:13.871Z,99577.20
2017-11-16T23:38:44.036Z,99577.88
2017-11-16T23:41:13.700Z,99573.80
2017-11-16T23:43:43.858Z,99570.66
2017-11-16T23:46:14.048Z,99568.02
2017-11-16T23:48:43.843Z,99565.51
2017-11-16T23:51:14.260Z,99565.04
2017-11-16T23:53:43.964Z,99567.77
2017-11-16T23:56:14.106Z,99564.23
2017-11-16T23:58:43.852Z,99569.30
